sensor_id;sensor_type;location;lat;lon;timestamp;temperature;humidity
6429;DHT22;3247;48.946;10.220;2023-05-10T00:02:26;13.40;99.90
6429;DHT22;3247;48.946;10.220;2023-05-10T00:04:52;13.30;99.90
6429;DHT22;3247;48.946;10.220;2023-05-10T00:07:17;13.20;99.90
6429;DHT22;3247;48.946;10.220;2023-05-10T00:09:43;13.60;99.90
6429;DHT22;3247;48.946;10.220;2023-05-10T00:12:09;13.20;99.90
6429;DHT22;3247;48.946;10.220;2023-05-10T00:14:34;13.20;99.90
6429;DHT22;3247;48.946;10.220;2023-05-10T00:17:00;13.20;99.90
6429;DHT22;3247;48.946;10.220;2023-05-10T00:19:26;13.20;99.90
6429;DHT22;3247;48.946;10.220;2023-05-10T00:21:51;13.10;99.90
6429;DHT22;3247;48.946;10.220;2023-05-10T00:24:17;13.30;99.90
6429;DHT22;3247;48.946;10.220;2023-05-10T00:26:42;13.20;99.90
6429;DHT22;3247;48.946;10.220;2023-05-10T00:29:08;13.20;99.90
6429;DHT22;3247;48.946;10.220;2023-05-10T00:31:36;13.10;99.90
6429;DHT22;3247;48.946;10.220;2023-05-10T00:34:02;13.10;99.90
6429;DHT22;3247;48.946;10.220;2023-05-10T00:36:27;13.10;99.90
6429;DHT22;3247;48.946;10.220;2023-05-10T00:38:53;13.10;99.90
6429;DHT22;3247;48.946;10.220;2023-05-10T00:41:18;13.10;99.90
6429;DHT22;3247;48.946;10.220;2023-05-10T00:43:43;13.10;99.90
6429;DHT22;3247;48.946;10.220;2023-05-10T00:46:09;13.10;99.90
6429;DHT22;3247;48.946;10.220;2023-05-10T00:48:34;13.10;99.90
6429;DHT22;3247;48.946;10.220;2023-05-10T00:51:00;13.10;99.90
6429;DHT22;3247;48.946;10.220;2023-05-10T00:53:26;13.10;99.90
6429;DHT22;3247;48.946;10.220;2023-05-10T00:55:52;13.10;99.90
6429;DHT22;3247;48.946;10.220;2023-05-10T00:58:17;13.10;99.90
6429;DHT22;3247;48.946;10.220;2023-05-10T01:00:43;13.10;99.90
6429;DHT22;3247;48.946;10.220;2023-05-10T01:03:09;13.10;99.90
6429;DHT22;3247;48.946;10.220;2023-05-10T01:05:35;13.10;99.90
6429;DHT22;3247;48.946;10.220;2023-05-10T01:08:00;13.40;99.90
6429;DHT22;3247;48.946;10.220;2023-05-10T01:10:26;13.10;99.90
6429;DHT22;3247;48.946;10.220;2023-05-10T01:12:52;13.60;99.90
6429;DHT22;3247;48.946;10.220;2023-05-10T01:15:17;13.10;99.90
6429;DHT22;3247;48.946;10.220;2023-05-10T01:17:43;13.00;99.90
6429;DHT22;3247;48.946;10.220;2023-05-10T01:20:10;13.00;99.90
6429;DHT22;3247;48.946;10.220;2023-05-10T01:30:18;12.90;99.90
6429;DHT22;3247;48.946;10.220;2023-05-10T01:32:49;12.90;99.90
6429;DHT22;3247;48.946;10.220;2023-05-10T01:35:34;12.90;99.90
6429;DHT22;3247;48.946;10.220;2023-05-10T01:40:39;12.90;99.90
6429;DHT22;3247;48.946;10.220;2023-05-10T01:43:07;12.90;99.90
6429;DHT22;3247;48.946;10.220;2023-05-10T01:45:35;12.90;99.90
6429;DHT22;3247;48.946;10.220;2023-05-10T01:48:06;12.90;99.90
6429;DHT22;3247;48.946;10.220;2023-05-10T01:50:32;12.90;99.90
6429;DHT22;3247;48.946;10.220;2023-05-10T01:53:01;12.80;99.90
6429;DHT22;3247;48.946;10.220;2023-05-10T01:55:28;12.90;99.90
6429;DHT22;3247;48.946;10.220;2023-05-10T01:57:58;12.80;99.90
6429;DHT22;3247;48.946;10.220;2023-05-10T02:00:31;12.80;99.90
6429;DHT22;3247;48.946;10.220;2023-05-10T02:02:59;12.80;99.90
6429;DHT22;3247;48.946;10.220;2023-05-10T02:05:25;12.70;99.90
6429;DHT22;3247;48.946;10.220;2023-05-10T02:07:51;13.20;99.90
6429;DHT22;3247;48.946;10.220;2023-05-10T02:10:17;12.70;99.90
6429;DHT22;3247;48.946;10.220;2023-05-10T02:12:44;12.70;99.90
6429;DHT22;3247;48.946;10.220;2023-05-10T02:15:11;12.70;99.90
6429;DHT22;3247;48.946;10.220;2023-05-10T02:17:38;12.60;99.90
6429;DHT22;3247;48.946;10.220;2023-05-10T02:20:07;12.60;99.90
6429;DHT22;3247;48.946;10.220;2023-05-10T02:22:33;12.50;99.90
6429;DHT22;3247;48.946;10.220;2023-05-10T02:24:59;13.20;99.90
6429;DHT22;3247;48.946;10.220;2023-05-10T02:27:26;12.90;99.90
6429;DHT22;3247;48.946;10.220;2023-05-10T02:29:58;12.70;99.90
6429;DHT22;3247;48.946;10.220;2023-05-10T02:32:24;12.50;99.90
6429;DHT22;3247;48.946;10.220;2023-05-10T02:34:49;12.60;99.90
6429;DHT22;3247;48.946;10.220;2023-05-10T02:37:18;12.50;99.90
6429;DHT22;3247;48.946;10.220;2023-05-10T02:39:46;12.40;99.90
6429;DHT22;3247;48.946;10.220;2023-05-10T02:42:14;12.40;99.90
6429;DHT22;3247;48.946;10.220;2023-05-10T02:44:41;12.40;99.90
6429;DHT22;3247;48.946;10.220;2023-05-10T02:47:08;12.30;99.90
6429;DHT22;3247;48.946;10.220;2023-05-10T02:49:33;12.40;99.90
6429;DHT22;3247;48.946;10.220;2023-05-10T02:52:00;12.40;99.90
6429;DHT22;3247;48.946;10.220;2023-05-10T02:54:30;13.30;99.90
6429;DHT22;3247;48.946;10.220;2023-05-10T02:56:58;13.20;99.90
6429;DHT22;3247;48.946;10.220;2023-05-10T02:59:28;12.40;99.90
6429;DHT22;3247;48.946;10.220;2023-05-10T03:02:09;12.40;99.90
6429;DHT22;3247;48.946;10.220;2023-05-10T03:04:35;12.40;99.90
6429;DHT22;3247;48.946;10.220;2023-05-10T03:07:01;12.30;99.90
6429;DHT22;3247;48.946;10.220;2023-05-10T03:09:26;12.30;99.90
6429;DHT22;3247;48.946;10.220;2023-05-10T03:16:56;12.20;99.90
6429;DHT22;3247;48.946;10.220;2023-05-10T03:19:24;12.20;99.90
6429;DHT22;3247;48.946;10.220;2023-05-10T03:21:52;12.20;99.90
6429;DHT22;3247;48.946;10.220;2023-05-10T03:24:20;11.10;99.90
6429;DHT22;3247;48.946;10.220;2023-05-10T03:26:46;12.00;99.90
6429;DHT22;3247;48.946;10.220;2023-05-10T03:29:12;12.00;99.90
6429;DHT22;3247;48.946;10.220;2023-05-10T03:31:39;12.00;99.90
6429;DHT22;3247;48.946;10.220;2023-05-10T03:34:05;11.80;99.90
6429;DHT22;3247;48.946;10.220;2023-05-10T03:36:31;11.90;99.90
6429;DHT22;3247;48.946;10.220;2023-05-10T03:38:56;11.70;99.90
6429;DHT22;3247;48.946;10.220;2023-05-10T03:41:22;11.90;99.90
6429;DHT22;3247;48.946;10.220;2023-05-10T03:43:47;12.00;99.90
6429;DHT22;3247;48.946;10.220;2023-05-10T03:46:13;11.90;99.90
6429;DHT22;3247;48.946;10.220;2023-05-10T03:48:38;11.80;99.90
6429;DHT22;3247;48.946;10.220;2023-05-10T03:51:04;11.80;99.90
6429;DHT22;3247;48.946;10.220;2023-05-10T03:53:29;11.50;99.90
6429;DHT22;3247;48.946;10.220;2023-05-10T03:55:55;11.70;99.90
6429;DHT22;3247;48.946;10.220;2023-05-10T03:58:20;11.80;99.90
6429;DHT22;3247;48.946;10.220;2023-05-10T04:03:34;11.70;99.90
6429;DHT22;3247;48.946;10.220;2023-05-10T04:06:01;11.70;99.90
6429;DHT22;3247;48.946;10.220;2023-05-10T04:08:28;11.70;99.90
6429;DHT22;3247;48.946;10.220;2023-05-10T04:10:54;11.70;99.90
6429;DHT22;3247;48.946;10.220;2023-05-10T04:13:19;11.70;99.90
6429;DHT22;3247;48.946;10.220;2023-05-10T04:15:46;11.70;99.90
6429;DHT22;3247;48.946;10.220;2023-05-10T04:18:11;11.80;99.90
6429;DHT22;3247;48.946;10.220;2023-05-10T04:20:37;11.70;99.90
6429;DHT22;3247;48.946;10.220;2023-05-10T04:23:02;11.80;99.90
6429;DHT22;3247;48.946;10.220;2023-05-10T04:25:28;11.70;99.90
6429;DHT22;3247;48.946;10.220;2023-05-10T04:27:53;11.70;99.90
6429;DHT22;3247;48.946;10.220;2023-05-10T04:33:15;11.70;99.90
6429;DHT22;3247;48.946;10.220;2023-05-10T04:35:41;11.70;99.90
6429;DHT22;3247;48.946;10.220;2023-05-10T04:38:06;11.70;99.90
6429;DHT22;3247;48.946;10.220;2023-05-10T04:40:32;11.70;99.90
6429;DHT22;3247;48.946;10.220;2023-05-10T04:42:57;11.90;99.90
6429;DHT22;3247;48.946;10.220;2023-05-10T04:45:23;12.10;99.90
6429;DHT22;3247;48.946;10.220;2023-05-10T04:47:48;11.80;99.90
6429;DHT22;3247;48.946;10.220;2023-05-10T04:50:14;11.80;99.90
6429;DHT22;3247;48.946;10.220;2023-05-10T04:52:39;11.80;99.90
6429;DHT22;3247;48.946;10.220;2023-05-10T04:55:05;11.80;99.90
6429;DHT22;3247;48.946;10.220;2023-05-10T04:57:32;11.80;99.90
6429;DHT22;3247;48.946;10.220;2023-05-10T04:59:58;11.80;99.90
6429;DHT22;3247;48.946;10.220;2023-05-10T05:02:24;11.90;99.90
6429;DHT22;3247;48.946;10.220;2023-05-10T05:04:50;11.90;99.90
6429;DHT22;3247;48.946;10.220;2023-05-10T05:07:16;11.90;99.90
6429;DHT22;3247;48.946;10.220;2023-05-10T05:09:41;12.00;99.90
6429;DHT22;3247;48.946;10.220;2023-05-10T05:12:07;12.00;99.90
6429;DHT22;3247;48.946;10.220;2023-05-10T05:14:32;12.00;99.90
6429;DHT22;3247;48.946;10.220;2023-05-10T05:16:58;12.10;99.90
6429;DHT22;3247;48.946;10.220;2023-05-10T05:19:23;12.10;99.90
6429;DHT22;3247;48.946;10.220;2023-05-10T05:21:49;12.10;99.90
6429;DHT22;3247;48.946;10.220;2023-05-10T05:24:14;12.10;99.90
6429;DHT22;3247;48.946;10.220;2023-05-10T05:26:40;12.20;99.90
6429;DHT22;3247;48.946;10.220;2023-05-10T05:29:05;12.20;99.90
6429;DHT22;3247;48.946;10.220;2023-05-10T05:31:31;12.20;99.90
6429;DHT22;3247;48.946;10.220;2023-05-10T05:33:57;12.20;99.90
6429;DHT22;3247;48.946;10.220;2023-05-10T05:36:22;12.20;99.90
6429;DHT22;3247;48.946;10.220;2023-05-10T05:38:47;12.20;99.90
6429;DHT22;3247;48.946;10.220;2023-05-10T05:41:13;12.30;99.90
6429;DHT22;3247;48.946;10.220;2023-05-10T05:43:38;12.30;99.90
6429;DHT22;3247;48.946;10.220;2023-05-10T05:46:04;12.40;99.90
6429;DHT22;3247;48.946;10.220;2023-05-10T05:48:30;12.50;99.90
6429;DHT22;3247;48.946;10.220;2023-05-10T05:50:56;12.60;99.90
6429;DHT22;3247;48.946;10.220;2023-05-10T05:53:24;12.70;99.90
6429;DHT22;3247;48.946;10.220;2023-05-10T05:55:57;12.70;99.90
6429;DHT22;3247;48.946;10.220;2023-05-10T05:58:23;12.80;99.90
6429;DHT22;3247;48.946;10.220;2023-05-10T06:00:59;12.90;99.90
6429;DHT22;3247;48.946;10.220;2023-05-10T06:03:26;13.00;99.90
6429;DHT22;3247;48.946;10.220;2023-05-10T06:05:51;13.00;99.90
6429;DHT22;3247;48.946;10.220;2023-05-10T06:08:17;13.00;99.90
6429;DHT22;3247;48.946;10.220;2023-05-10T06:10:42;13.10;99.90
6429;DHT22;3247;48.946;10.220;2023-05-10T06:13:08;13.10;99.90
6429;DHT22;3247;48.946;10.220;2023-05-10T06:15:33;13.00;99.90
6429;DHT22;3247;48.946;10.220;2023-05-10T06:17:59;13.00;99.90
6429;DHT22;3247;48.946;10.220;2023-05-10T06:20:25;13.00;99.90
6429;DHT22;3247;48.946;10.220;2023-05-10T06:22:51;13.00;99.90
6429;DHT22;3247;48.946;10.220;2023-05-10T06:25:16;13.00;99.90
6429;DHT22;3247;48.946;10.220;2023-05-10T06:27:43;13.30;99.90
6429;DHT22;3247;48.946;10.220;2023-05-10T06:30:09;13.40;99.90
6429;DHT22;3247;48.946;10.220;2023-05-10T06:32:34;13.00;99.90
6429;DHT22;3247;48.946;10.220;2023-05-10T06:35:00;13.00;99.90
6429;DHT22;3247;48.946;10.220;2023-05-10T06:37:25;12.50;99.90
6429;DHT22;3247;48.946;10.220;2023-05-10T06:39:51;13.70;99.90
6429;DHT22;3247;48.946;10.220;2023-05-10T06:42:16;13.90;99.90
6429;DHT22;3247;48.946;10.220;2023-05-10T06:44:42;13.10;99.90
6429;DHT22;3247;48.946;10.220;2023-05-10T06:47:08;13.00;99.90
6429;DHT22;3247;48.946;10.220;2023-05-10T06:49:34;13.60;99.90
6429;DHT22;3247;48.946;10.220;2023-05-10T06:51:59;14.50;99.90
6429;DHT22;3247;48.946;10.220;2023-05-10T06:54:25;14.30;99.90
6429;DHT22;3247;48.946;10.220;2023-05-10T06:56:50;13.30;99.90
6429;DHT22;3247;48.946;10.220;2023-05-10T06:59:16;13.40;99.90
6429;DHT22;3247;48.946;10.220;2023-05-10T07:02:00;13.70;99.90
6429;DHT22;3247;48.946;10.220;2023-05-10T07:04:25;13.30;99.90
6429;DHT22;3247;48.946;10.220;2023-05-10T07:06:51;13.50;99.90
6429;DHT22;3247;48.946;10.220;2023-05-10T07:09:17;13.60;99.90
6429;DHT22;3247;48.946;10.220;2023-05-10T07:11:42;13.80;99.90
6429;DHT22;3247;48.946;10.220;2023-05-10T07:14:08;13.90;99.90
6429;DHT22;3247;48.946;10.220;2023-05-10T07:16:33;13.90;99.90
6429;DHT22;3247;48.946;10.220;2023-05-10T07:18:58;14.10;99.90
6429;DHT22;3247;48.946;10.220;2023-05-10T07:21:24;14.20;99.90
6429;DHT22;3247;48.946;10.220;2023-05-10T07:23:49;14.40;99.90
6429;DHT22;3247;48.946;10.220;2023-05-10T07:26:15;14.60;99.90
6429;DHT22;3247;48.946;10.220;2023-05-10T07:28:41;14.70;99.90
6429;DHT22;3247;48.946;10.220;2023-05-10T07:31:25;14.90;99.90
6429;DHT22;3247;48.946;10.220;2023-05-10T07:33:50;15.10;99.90
6429;DHT22;3247;48.946;10.220;2023-05-10T07:36:16;15.10;99.90
6429;DHT22;3247;48.946;10.220;2023-05-10T07:38:42;15.20;99.90
6429;DHT22;3247;48.946;10.220;2023-05-10T07:41:07;15.30;99.90
6429;DHT22;3247;48.946;10.220;2023-05-10T07:43:32;15.50;99.90
6429;DHT22;3247;48.946;10.220;2023-05-10T07:45:58;15.70;99.90
6429;DHT22;3247;48.946;10.220;2023-05-10T07:48:25;15.90;99.90
6429;DHT22;3247;48.946;10.220;2023-05-10T07:50:50;16.10;99.90
6429;DHT22;3247;48.946;10.220;2023-05-10T07:53:16;16.20;99.90
6429;DHT22;3247;48.946;10.220;2023-05-10T07:55:42;16.50;99.90
6429;DHT22;3247;48.946;10.220;2023-05-10T07:58:07;16.80;99.90
6429;DHT22;3247;48.946;10.220;2023-05-10T08:00:42;17.40;99.90
6429;DHT22;3247;48.946;10.220;2023-05-10T08:03:07;17.50;99.90
6429;DHT22;3247;48.946;10.220;2023-05-10T08:05:33;17.80;99.90
6429;DHT22;3247;48.946;10.220;2023-05-10T08:07:58;18.00;99.90
6429;DHT22;3247;48.946;10.220;2023-05-10T08:10:24;18.10;99.90
6429;DHT22;3247;48.946;10.220;2023-05-10T08:12:50;18.40;99.90
6429;DHT22;3247;48.946;10.220;2023-05-10T08:15:15;18.70;99.90
6429;DHT22;3247;48.946;10.220;2023-05-10T08:17:41;19.10;99.90
6429;DHT22;3247;48.946;10.220;2023-05-10T08:20:08;19.30;99.90
6429;DHT22;3247;48.946;10.220;2023-05-10T08:22:33;18.40;99.90
6429;DHT22;3247;48.946;10.220;2023-05-10T08:24:59;18.00;99.90
6429;DHT22;3247;48.946;10.220;2023-05-10T08:27:24;17.90;99.90
6429;DHT22;3247;48.946;10.220;2023-05-10T08:30:05;17.70;99.90
6429;DHT22;3247;48.946;10.220;2023-05-10T08:32:31;17.60;99.90
6429;DHT22;3247;48.946;10.220;2023-05-10T08:34:56;17.30;99.90
6429;DHT22;3247;48.946;10.220;2023-05-10T08:37:23;17.10;99.90
6429;DHT22;3247;48.946;10.220;2023-05-10T08:39:48;17.00;99.90
6429;DHT22;3247;48.946;10.220;2023-05-10T08:42:14;16.70;99.90
6429;DHT22;3247;48.946;10.220;2023-05-10T08:44:41;16.50;99.90
6429;DHT22;3247;48.946;10.220;2023-05-10T08:47:07;16.80;99.90
6429;DHT22;3247;48.946;10.220;2023-05-10T08:49:34;16.40;99.90
6429;DHT22;3247;48.946;10.220;2023-05-10T08:52:01;16.50;99.90
6429;DHT22;3247;48.946;10.220;2023-05-10T08:54:28;16.60;99.90
6429;DHT22;3247;48.946;10.220;2023-05-10T08:56:54;16.70;99.90
6429;DHT22;3247;48.946;10.220;2023-05-10T08:59:19;17.50;99.90
6429;DHT22;3247;48.946;10.220;2023-05-10T09:04:32;17.50;99.90
6429;DHT22;3247;48.946;10.220;2023-05-10T09:06:58;17.80;99.90
6429;DHT22;3247;48.946;10.220;2023-05-10T09:09:23;18.00;99.90
6429;DHT22;3247;48.946;10.220;2023-05-10T09:11:50;17.70;99.90
6429;DHT22;3247;48.946;10.220;2023-05-10T09:14:16;17.80;99.90
6429;DHT22;3247;48.946;10.220;2023-05-10T09:16:42;17.30;99.90
6429;DHT22;3247;48.946;10.220;2023-05-10T09:19:08;17.30;99.90
6429;DHT22;3247;48.946;10.220;2023-05-10T09:21:35;17.20;99.90
6429;DHT22;3247;48.946;10.220;2023-05-10T09:24:03;17.40;99.90
6429;DHT22;3247;48.946;10.220;2023-05-10T09:26:30;17.10;99.90
6429;DHT22;3247;48.946;10.220;2023-05-10T09:28:56;17.60;99.90
6429;DHT22;3247;48.946;10.220;2023-05-10T09:34:32;17.20;99.90
6429;DHT22;3247;48.946;10.220;2023-05-10T09:37:00;17.80;99.90
6429;DHT22;3247;48.946;10.220;2023-05-10T09:39:33;17.20;99.90
6429;DHT22;3247;48.946;10.220;2023-05-10T09:42:02;17.30;99.90
6429;DHT22;3247;48.946;10.220;2023-05-10T09:44:31;17.60;99.90
6429;DHT22;3247;48.946;10.220;2023-05-10T09:46:57;18.30;99.90
6429;DHT22;3247;48.946;10.220;2023-05-10T09:49:23;18.10;99.90
6429;DHT22;3247;48.946;10.220;2023-05-10T09:52:05;17.70;99.90
6429;DHT22;3247;48.946;10.220;2023-05-10T09:54:30;18.80;99.90
6429;DHT22;3247;48.946;10.220;2023-05-10T09:56:56;18.80;99.90
6429;DHT22;3247;48.946;10.220;2023-05-10T09:59:22;19.50;99.90
6429;DHT22;3247;48.946;10.220;2023-05-10T10:01:50;19.10;99.90
6429;DHT22;3247;48.946;10.220;2023-05-10T10:04:16;19.10;99.90
6429;DHT22;3247;48.946;10.220;2023-05-10T10:06:42;19.20;99.90
6429;DHT22;3247;48.946;10.220;2023-05-10T10:09:08;18.90;99.90
6429;DHT22;3247;48.946;10.220;2023-05-10T10:11:34;19.00;99.90
6429;DHT22;3247;48.946;10.220;2023-05-10T10:13:59;18.80;99.90
6429;DHT22;3247;48.946;10.220;2023-05-10T10:16:25;18.80;99.90
6429;DHT22;3247;48.946;10.220;2023-05-10T10:18:52;18.80;99.90
6429;DHT22;3247;48.946;10.220;2023-05-10T10:21:17;18.60;99.90
6429;DHT22;3247;48.946;10.220;2023-05-10T10:23:43;18.40;99.90
6429;DHT22;3247;48.946;10.220;2023-05-10T10:26:09;18.10;99.90
6429;DHT22;3247;48.946;10.220;2023-05-10T10:31:17;17.30;99.90
6429;DHT22;3247;48.946;10.220;2023-05-10T10:36:09;16.90;99.90
6429;DHT22;3247;48.946;10.220;2023-05-10T10:38:57;16.60;99.90
6429;DHT22;3247;48.946;10.220;2023-05-10T10:41:34;16.50;99.90
6429;DHT22;3247;48.946;10.220;2023-05-10T10:49:32;16.60;99.90
6429;DHT22;3247;48.946;10.220;2023-05-10T10:57:27;17.50;99.90
6429;DHT22;3247;48.946;10.220;2023-05-10T11:02:43;18.10;99.90
6429;DHT22;3247;48.946;10.220;2023-05-10T11:05:23;18.10;99.90
6429;DHT22;3247;48.946;10.220;2023-05-10T11:07:53;18.10;99.90
6429;DHT22;3247;48.946;10.220;2023-05-10T11:10:20;17.90;99.90
6429;DHT22;3247;48.946;10.220;2023-05-10T11:15:33;17.50;99.90
6429;DHT22;3247;48.946;10.220;2023-05-10T11:17:59;17.30;99.90
6429;DHT22;3247;48.946;10.220;2023-05-10T11:20:27;17.20;99.90
6429;DHT22;3247;48.946;10.220;2023-05-10T11:22:58;17.20;99.90
6429;DHT22;3247;48.946;10.220;2023-05-10T11:25:39;17.60;99.90
6429;DHT22;3247;48.946;10.220;2023-05-10T11:28:05;17.20;99.90
6429;DHT22;3247;48.946;10.220;2023-05-10T11:30:43;17.50;99.90
6429;DHT22;3247;48.946;10.220;2023-05-10T11:33:09;17.60;99.90
6429;DHT22;3247;48.946;10.220;2023-05-10T11:35:38;17.70;99.90
6429;DHT22;3247;48.946;10.220;2023-05-10T11:38:07;18.00;99.90
6429;DHT22;3247;48.946;10.220;2023-05-10T11:40:33;18.20;99.90
6429;DHT22;3247;48.946;10.220;2023-05-10T11:42:59;17.90;99.90
6429;DHT22;3247;48.946;10.220;2023-05-10T11:45:24;17.90;99.90
6429;DHT22;3247;48.946;10.220;2023-05-10T11:47:50;17.90;99.90
6429;DHT22;3247;48.946;10.220;2023-05-10T11:50:16;18.10;99.90
6429;DHT22;3247;48.946;10.220;2023-05-10T11:52:42;18.30;99.90
6429;DHT22;3247;48.946;10.220;2023-05-10T11:55:08;18.30;99.90
6429;DHT22;3247;48.946;10.220;2023-05-10T11:57:33;18.90;99.90
6429;DHT22;3247;48.946;10.220;2023-05-10T11:59:59;18.90;99.90
6429;DHT22;3247;48.946;10.220;2023-05-10T12:02:24;18.70;99.90
6429;DHT22;3247;48.946;10.220;2023-05-10T12:04:50;18.50;99.90
6429;DHT22;3247;48.946;10.220;2023-05-10T12:07:16;18.50;99.90
6429;DHT22;3247;48.946;10.220;2023-05-10T12:09:44;18.60;99.90
6429;DHT22;3247;48.946;10.220;2023-05-10T12:12:11;18.70;99.90
6429;DHT22;3247;48.946;10.220;2023-05-10T12:14:40;18.80;99.90
6429;DHT22;3247;48.946;10.220;2023-05-10T12:17:06;19.00;99.90
6429;DHT22;3247;48.946;10.220;2023-05-10T12:19:37;19.20;99.90
6429;DHT22;3247;48.946;10.220;2023-05-10T12:22:06;19.30;99.90
6429;DHT22;3247;48.946;10.220;2023-05-10T12:24:35;19.40;99.90
6429;DHT22;3247;48.946;10.220;2023-05-10T12:27:04;19.40;99.90
6429;DHT22;3247;48.946;10.220;2023-05-10T12:29:30;19.30;99.90
6429;DHT22;3247;48.946;10.220;2023-05-10T12:32:01;19.40;99.90
6429;DHT22;3247;48.946;10.220;2023-05-10T12:34:31;19.20;99.90
6429;DHT22;3247;48.946;10.220;2023-05-10T12:36:58;19.10;99.90
6429;DHT22;3247;48.946;10.220;2023-05-10T12:39:25;18.90;99.90
6429;DHT22;3247;48.946;10.220;2023-05-10T12:41:51;18.60;99.90
6429;DHT22;3247;48.946;10.220;2023-05-10T12:44:17;18.50;99.90
6429;DHT22;3247;48.946;10.220;2023-05-10T12:46:43;18.10;99.90
6429;DHT22;3247;48.946;10.220;2023-05-10T12:49:08;17.70;99.90
6429;DHT22;3247;48.946;10.220;2023-05-10T12:51:33;17.30;99.90
6429;DHT22;3247;48.946;10.220;2023-05-10T12:53:59;17.20;99.90
6429;DHT22;3247;48.946;10.220;2023-05-10T12:56:24;17.20;99.90
6429;DHT22;3247;48.946;10.220;2023-05-10T12:58:50;17.20;99.90
6429;DHT22;3247;48.946;10.220;2023-05-10T13:01:25;17.10;99.90
6429;DHT22;3247;48.946;10.220;2023-05-10T13:03:50;16.90;99.90
6429;DHT22;3247;48.946;10.220;2023-05-10T13:06:16;16.90;99.90
6429;DHT22;3247;48.946;10.220;2023-05-10T13:08:41;16.90;99.90
6429;DHT22;3247;48.946;10.220;2023-05-10T13:11:07;16.70;99.90
6429;DHT22;3247;48.946;10.220;2023-05-10T13:13:32;17.10;99.90
6429;DHT22;3247;48.946;10.220;2023-05-10T13:15:58;17.00;99.90
6429;DHT22;3247;48.946;10.220;2023-05-10T13:18:23;16.90;99.90
6429;DHT22;3247;48.946;10.220;2023-05-10T13:20:49;17.00;99.90
6429;DHT22;3247;48.946;10.220;2023-05-10T13:23:15;16.80;99.90
6429;DHT22;3247;48.946;10.220;2023-05-10T13:25:40;16.70;99.90
6429;DHT22;3247;48.946;10.220;2023-05-10T13:28:06;16.60;99.90
6429;DHT22;3247;48.946;10.220;2023-05-10T13:30:46;16.50;99.90
6429;DHT22;3247;48.946;10.220;2023-05-10T13:33:12;16.40;99.90
6429;DHT22;3247;48.946;10.220;2023-05-10T13:35:37;16.20;99.90
6429;DHT22;3247;48.946;10.220;2023-05-10T13:38:02;16.10;99.90
6429;DHT22;3247;48.946;10.220;2023-05-10T13:40:28;16.10;99.90
6429;DHT22;3247;48.946;10.220;2023-05-10T13:42:53;16.00;99.90
6429;DHT22;3247;48.946;10.220;2023-05-10T13:45:19;16.00;99.90
6429;DHT22;3247;48.946;10.220;2023-05-10T13:47:44;15.90;99.90
6429;DHT22;3247;48.946;10.220;2023-05-10T13:50:10;16.00;99.90
6429;DHT22;3247;48.946;10.220;2023-05-10T13:52:35;16.50;99.90
6429;DHT22;3247;48.946;10.220;2023-05-10T13:55:01;15.40;99.90
6429;DHT22;3247;48.946;10.220;2023-05-10T13:57:26;16.10;99.90
6429;DHT22;3247;48.946;10.220;2023-05-10T13:59:54;16.20;99.90
6429;DHT22;3247;48.946;10.220;2023-05-10T14:02:19;16.20;99.90
6429;DHT22;3247;48.946;10.220;2023-05-10T14:04:45;16.30;99.90
6429;DHT22;3247;48.946;10.220;2023-05-10T14:07:11;16.40;99.90
6429;DHT22;3247;48.946;10.220;2023-05-10T14:09:36;16.40;99.90
6429;DHT22;3247;48.946;10.220;2023-05-10T14:12:02;16.40;99.90
6429;DHT22;3247;48.946;10.220;2023-05-10T14:14:27;16.40;99.90
6429;DHT22;3247;48.946;10.220;2023-05-10T14:16:54;16.40;99.90
6429;DHT22;3247;48.946;10.220;2023-05-10T14:19:19;16.40;99.90
6429;DHT22;3247;48.946;10.220;2023-05-10T14:21:45;16.40;99.90
6429;DHT22;3247;48.946;10.220;2023-05-10T14:24:10;16.50;99.90
6429;DHT22;3247;48.946;10.220;2023-05-10T14:26:36;16.50;99.90
6429;DHT22;3247;48.946;10.220;2023-05-10T14:29:01;16.60;99.90
6429;DHT22;3247;48.946;10.220;2023-05-10T14:31:27;16.60;99.90
6429;DHT22;3247;48.946;10.220;2023-05-10T14:33:55;16.60;99.90
6429;DHT22;3247;48.946;10.220;2023-05-10T14:36:20;16.60;99.90
6429;DHT22;3247;48.946;10.220;2023-05-10T14:38:46;16.60;99.90
6429;DHT22;3247;48.946;10.220;2023-05-10T14:41:11;16.60;99.90
6429;DHT22;3247;48.946;10.220;2023-05-10T14:43:39;16.50;99.90
6429;DHT22;3247;48.946;10.220;2023-05-10T14:46:05;16.60;99.90
6429;DHT22;3247;48.946;10.220;2023-05-10T14:48:34;16.60;99.90
6429;DHT22;3247;48.946;10.220;2023-05-10T14:51:00;16.70;99.90
6429;DHT22;3247;48.946;10.220;2023-05-10T14:53:25;16.50;99.90
6429;DHT22;3247;48.946;10.220;2023-05-10T14:55:51;16.40;99.90
6429;DHT22;3247;48.946;10.220;2023-05-10T14:58:19;16.50;99.90
6429;DHT22;3247;48.946;10.220;2023-05-10T15:00:53;16.50;99.90
6429;DHT22;3247;48.946;10.220;2023-05-10T15:03:19;16.40;99.90
6429;DHT22;3247;48.946;10.220;2023-05-10T15:05:44;16.40;99.90
6429;DHT22;3247;48.946;10.220;2023-05-10T15:08:10;17.00;99.90
6429;DHT22;3247;48.946;10.220;2023-05-10T15:10:37;16.20;99.90
6429;DHT22;3247;48.946;10.220;2023-05-10T15:13:03;16.00;99.90
6429;DHT22;3247;48.946;10.220;2023-05-10T15:15:29;16.00;99.90
6429;DHT22;3247;48.946;10.220;2023-05-10T15:17:55;16.40;99.90
6429;DHT22;3247;48.946;10.220;2023-05-10T15:20:20;15.80;99.90
6429;DHT22;3247;48.946;10.220;2023-05-10T15:22:45;15.80;99.90
6429;DHT22;3247;48.946;10.220;2023-05-10T15:25:11;15.80;99.90
6429;DHT22;3247;48.946;10.220;2023-05-10T15:27:36;15.80;99.90
6429;DHT22;3247;48.946;10.220;2023-05-10T15:30:02;15.90;99.90
6429;DHT22;3247;48.946;10.220;2023-05-10T15:32:27;16.00;99.90
6429;DHT22;3247;48.946;10.220;2023-05-10T15:34:54;16.10;99.90
6429;DHT22;3247;48.946;10.220;2023-05-10T15:37:20;16.20;99.90
6429;DHT22;3247;48.946;10.220;2023-05-10T15:39:45;16.20;99.90
6429;DHT22;3247;48.946;10.220;2023-05-10T15:42:11;16.30;99.90
6429;DHT22;3247;48.946;10.220;2023-05-10T15:44:36;16.30;99.90
6429;DHT22;3247;48.946;10.220;2023-05-10T15:47:04;16.30;99.90
6429;DHT22;3247;48.946;10.220;2023-05-10T15:49:29;16.30;99.90
6429;DHT22;3247;48.946;10.220;2023-05-10T15:51:54;16.40;99.90
6429;DHT22;3247;48.946;10.220;2023-05-10T15:54:20;16.40;99.90
6429;DHT22;3247;48.946;10.220;2023-05-10T15:56:46;16.40;99.90
6429;DHT22;3247;48.946;10.220;2023-05-10T15:59:11;16.60;99.90
6429;DHT22;3247;48.946;10.220;2023-05-10T16:01:36;16.50;99.90
6429;DHT22;3247;48.946;10.220;2023-05-10T16:04:03;16.50;99.90
6429;DHT22;3247;48.946;10.220;2023-05-10T16:06:28;16.60;99.90
6429;DHT22;3247;48.946;10.220;2023-05-10T16:08:54;16.50;99.90
6429;DHT22;3247;48.946;10.220;2023-05-10T16:11:20;16.50;99.90
6429;DHT22;3247;48.946;10.220;2023-05-10T16:13:45;16.50;99.90
6429;DHT22;3247;48.946;10.220;2023-05-10T16:16:11;16.40;99.90
6429;DHT22;3247;48.946;10.220;2023-05-10T16:18:36;16.40;99.90
6429;DHT22;3247;48.946;10.220;2023-05-10T16:21:02;16.40;99.90
6429;DHT22;3247;48.946;10.220;2023-05-10T16:23:28;16.40;99.90
6429;DHT22;3247;48.946;10.220;2023-05-10T16:25:53;16.30;99.90
6429;DHT22;3247;48.946;10.220;2023-05-10T16:28:19;16.20;99.90
6429;DHT22;3247;48.946;10.220;2023-05-10T16:30:48;16.30;99.90